createdAt,value
2017-12-24T00:01:24.036Z,2.78
2017-12-24T00:03:52.720Z,2.67
2017-12-24T00:06:21.405Z,2.74
2017-12-24T00:08:50.045Z,2.56
2017-12-24T00:11:19.491Z,2.66
2017-12-24T00:13:48.227Z,2.57
2017-12-24T00:16:17.685Z,2.66
2017-12-24T00:18:46.371Z,2.73
2017-12-24T00:21:15.253Z,2.68
2017-12-24T00:23:43.950Z,2.66
2017-12-24T00:26:12.566Z,2.60
2017-12-24T00:28:41.421Z,2.63
2017-12-24T00:31:11.080Z,2.54
2017-12-24T00:33:40.537Z,2.48
2017-12-24T00:36:09.265Z,2.52
2017-12-24T00:38:38.721Z,2.49
2017-12-24T00:41:07.351Z,2.69
2017-12-24T00:43:36.816Z,2.67
2017-12-24T00:46:05.503Z,2.58
2017-12-24T00:48:34.175Z,2.68
2017-12-24T00:51:03.022Z,2.89
2017-12-24T00:53:31.663Z,2.78
2017-12-24T00:56:00.246Z,2.74
2017-12-24T00:58:28.974Z,2.62
2017-12-24T01:00:58.432Z,2.46
2017-12-24T01:03:27.016Z,2.44
2017-12-24T01:05:55.896Z,2.37
2017-12-24T01:08:24.541Z,2.45
2017-12-24T01:10:54.000Z,2.49
2017-12-24T01:13:22.990Z,2.43
2017-12-24T01:15:51.622Z,2.44
2017-12-24T01:18:21.074Z,2.47
2017-12-24T01:20:49.870Z,2.37
2017-12-24T01:23:18.446Z,2.41
2017-12-24T01:25:47.032Z,2.33
2017-12-24T01:28:16.086Z,2.28
2017-12-24T01:30:44.810Z,2.17
2017-12-24T01:33:13.448Z,2.27
2017-12-24T01:35:43.411Z,2.17
2017-12-24T01:38:11.997Z,2.29
2017-12-24T01:40:40.684Z,2.49
2017-12-24T01:43:09.742Z,2.57
2017-12-24T01:45:38.461Z,2.62
2017-12-24T01:48:08.758Z,2.71
2017-12-24T01:50:37.571Z,2.63
2017-12-24T01:53:06.264Z,2.84
2017-12-24T01:55:34.840Z,2.71
2017-12-24T01:58:03.738Z,2.62
2017-12-24T02:00:32.320Z,2.53
2017-12-24T02:03:01.007Z,2.42
2017-12-24T02:05:29.793Z,2.40
2017-12-24T02:07:58.477Z,2.47
2017-12-24T02:10:27.063Z,2.62
2017-12-24T02:12:55.803Z,2.46
2017-12-24T02:15:25.296Z,2.64
2017-12-24T02:17:54.756Z,2.74
2017-12-24T02:20:23.606Z,2.93
2017-12-24T02:22:53.050Z,3.17
2017-12-24T02:25:21.640Z,3.30
2017-12-24T02:27:50.684Z,3.41
2017-12-24T02:30:19.379Z,3.33
2017-12-24T02:32:48.107Z,3.28
2017-12-24T02:35:17.134Z,3.37
2017-12-24T02:37:45.877Z,3.49
2017-12-24T02:40:14.569Z,3.52
2017-12-24T02:42:43.364Z,3.53
2017-12-24T02:45:11.947Z,3.53
2017-12-24T02:47:40.597Z,3.44
2017-12-24T02:50:09.468Z,3.37
2017-12-24T02:52:38.925Z,3.40
2017-12-24T02:55:07.611Z,3.12
2017-12-24T02:57:36.448Z,3.30
2017-12-24T03:00:05.913Z,3.37
2017-12-24T03:02:34.578Z,3.28
2017-12-24T03:05:03.424Z,3.52
2017-12-24T03:07:32.883Z,3.54
2017-12-24T03:10:01.460Z,3.84
2017-12-24T03:12:30.257Z,3.45
2017-12-24T03:14:58.891Z,3.38
2017-12-24T03:17:28.341Z,3.51
2017-12-24T03:19:57.223Z,3.63
2017-12-24T03:22:25.920Z,3.85
2017-12-24T03:24:54.606Z,4.00
2017-12-24T03:27:23.599Z,4.23
2017-12-24T03:29:52.998Z,4.49
2017-12-24T03:32:21.785Z,4.67
2017-12-24T03:34:50.776Z,4.63
2017-12-24T03:37:19.364Z,4.55
2017-12-24T03:39:47.950Z,4.56
2017-12-24T03:42:17.088Z,4.56
2017-12-24T03:44:46.551Z,4.55
2017-12-24T03:47:15.237Z,4.45
2017-12-24T03:49:44.022Z,4.54
2017-12-24T03:52:12.659Z,4.57
2017-12-24T03:54:42.106Z,4.65
2017-12-24T03:57:11.104Z,4.92
2017-12-24T03:59:39.785Z,4.98
2017-12-24T04:02:08.471Z,5.07
2017-12-24T04:04:37.266Z,5.24
2017-12-24T04:07:05.912Z,5.33
2017-12-24T04:09:34.638Z,5.49
2017-12-24T04:12:03.619Z,5.53
2017-12-24T04:14:32.320Z,5.61
2017-12-24T04:17:00.936Z,5.51
2017-12-24T04:19:29.625Z,5.42
2017-12-24T04:21:59.088Z,5.47
2017-12-24T04:24:27.714Z,5.62
2017-12-24T04:26:57.375Z,5.54
2017-12-24T04:29:26.068Z,5.37
2017-12-24T04:31:54.753Z,5.26
2017-12-24T04:34:23.340Z,5.28
2017-12-24T04:36:52.025Z,5.43
2017-12-24T04:39:20.601Z,5.14
2017-12-24T04:41:49.333Z,5.13
2017-12-24T04:44:18.797Z,5.29
2017-12-24T04:46:47.422Z,5.45
2017-12-24T04:49:18.012Z,5.48
2017-12-24T04:51:46.682Z,5.38
2017-12-24T04:54:15.377Z,5.40
2017-12-24T04:56:44.118Z,5.53
2017-12-24T04:59:13.468Z,5.68
2017-12-24T05:01:42.056Z,5.49
2017-12-24T05:04:11.049Z,5.34
2017-12-24T05:06:39.735Z,5.69
2017-12-24T05:09:08.356Z,5.51
2017-12-24T05:11:37.820Z,5.33
2017-12-24T05:14:06.466Z,5.16
2017-12-24T05:16:35.191Z,5.32
2017-12-24T05:19:04.952Z,5.29
2017-12-24T05:21:33.693Z,5.31
2017-12-24T05:24:02.378Z,5.07
2017-12-24T05:26:31.150Z,5.13
2017-12-24T05:28:59.751Z,5.17
2017-12-24T05:31:28.428Z,5.30
2017-12-24T05:33:57.320Z,5.47
2017-12-24T05:36:26.004Z,5.41
2017-12-24T05:38:54.690Z,5.54
2017-12-24T05:41:23.536Z,5.26
2017-12-24T05:43:52.994Z,5.50
2017-12-24T05:46:21.681Z,5.63
2017-12-24T05:48:50.366Z,5.88
2017-12-24T05:51:18.942Z,5.83
2017-12-24T05:53:47.628Z,6.02
2017-12-24T05:56:16.314Z,5.96
2017-12-24T05:58:44.902Z,5.94
2017-12-24T06:01:13.578Z,6.03
2017-12-24T06:03:42.275Z,6.08
2017-12-24T06:06:10.960Z,6.03
2017-12-24T06:08:39.584Z,6.16
2017-12-24T06:11:09.142Z,6.14
2017-12-24T06:13:37.839Z,6.05
2017-12-24T06:16:06.525Z,6.20
2017-12-24T06:18:35.251Z,6.26
2017-12-24T06:21:04.670Z,6.29
2017-12-24T06:23:33.395Z,6.38
2017-12-24T06:26:02.080Z,6.40
2017-12-24T06:28:30.767Z,6.34
2017-12-24T06:30:59.415Z,6.53
2017-12-24T06:33:28.408Z,6.51
2017-12-24T06:35:57.131Z,6.40
2017-12-24T06:38:25.818Z,6.49
2017-12-24T06:40:54.761Z,6.41
2017-12-24T06:43:24.221Z,6.32
2017-12-24T06:45:52.914Z,6.25
2017-12-24T06:48:21.664Z,6.36
2017-12-24T06:50:50.378Z,6.49
2017-12-24T06:53:19.062Z,6.47
2017-12-24T06:55:47.749Z,6.48
2017-12-24T06:58:16.384Z,6.53
2017-12-24T07:00:45.874Z,6.69
2017-12-24T07:03:14.527Z,6.74
2017-12-24T07:05:43.206Z,6.86
2017-12-24T07:08:13.023Z,6.95
2017-12-24T07:10:41.808Z,7.11
2017-12-24T07:13:10.641Z,7.19
2017-12-24T07:15:40.106Z,7.29
2017-12-24T07:18:08.776Z,7.29
2017-12-24T07:20:37.369Z,7.25
2017-12-24T07:23:06.054Z,7.89
2017-12-24T07:25:34.681Z,7.68
2017-12-24T07:28:04.141Z,7.60
2017-12-24T07:30:32.924Z,7.64
2017-12-24T07:33:01.610Z,8.12
2017-12-24T07:35:30.250Z,8.75
2017-12-24T07:37:59.868Z,9.18
2017-12-24T07:40:28.589Z,8.95
2017-12-24T07:42:57.229Z,8.64
2017-12-24T07:45:26.847Z,8.67
2017-12-24T07:47:55.469Z,9.15
2017-12-24T07:50:24.066Z,8.79
2017-12-24T07:52:52.940Z,9.05
2017-12-24T07:55:21.528Z,9.44
2017-12-24T07:57:50.213Z,9.47
2017-12-24T08:00:19.207Z,9.18
2017-12-24T08:02:47.850Z,8.89
2017-12-24T08:05:16.578Z,8.85
2017-12-24T08:07:45.289Z,8.98
2017-12-24T08:10:14.048Z,8.85
2017-12-24T08:12:42.734Z,9.03
2017-12-24T08:15:11.685Z,9.23
2017-12-24T08:17:40.314Z,9.50
2017-12-24T08:20:08.901Z,9.26
2017-12-24T08:22:37.576Z,8.92
2017-12-24T08:25:06.254Z,9.00
2017-12-24T08:27:34.896Z,8.81
2017-12-24T08:30:04.972Z,8.87
2017-12-24T08:32:33.610Z,8.98
2017-12-24T08:35:03.057Z,8.78
2017-12-24T08:37:31.843Z,8.88
2017-12-24T08:40:00.539Z,9.07
2017-12-24T08:42:29.233Z,9.12
2017-12-24T08:44:58.009Z,9.37
2017-12-24T08:47:26.547Z,8.84
2017-12-24T08:49:55.995Z,9.05
2017-12-24T08:52:24.779Z,9.30
2017-12-24T08:54:53.422Z,9.41
2017-12-24T08:57:22.151Z,9.49
2017-12-24T08:59:50.946Z,9.91
2017-12-24T09:02:19.632Z,10.48
2017-12-24T09:04:48.319Z,10.63
2017-12-24T09:07:17.166Z,10.91
2017-12-24T09:09:45.852Z,10.95
2017-12-24T09:12:14.520Z,11.57
2017-12-24T09:14:43.984Z,11.38
2017-12-24T09:17:12.652Z,11.56
2017-12-24T09:19:41.295Z,11.80
2017-12-24T09:22:11.019Z,11.94
2017-12-24T09:24:39.943Z,12.20
2017-12-24T09:27:08.641Z,12.16
2017-12-24T09:29:37.494Z,12.08
2017-12-24T09:32:06.216Z,12.05
2017-12-24T09:34:34.855Z,11.95
2017-12-24T09:37:03.692Z,11.86
2017-12-24T09:39:32.362Z,12.01
2017-12-24T09:42:01.005Z,11.85
2017-12-24T09:44:30.476Z,11.98
2017-12-24T09:46:59.038Z,11.95
2017-12-24T09:49:27.731Z,11.98
2017-12-24T09:51:56.828Z,12.10
2017-12-24T09:54:25.615Z,12.40
2017-12-24T09:56:54.233Z,12.07
2017-12-24T09:59:23.707Z,12.48
2017-12-24T10:01:52.394Z,12.75
2017-12-24T10:04:20.968Z,12.73
2017-12-24T10:06:49.765Z,12.79
2017-12-24T10:09:18.550Z,12.73
2017-12-24T10:11:47.104Z,13.09
2017-12-24T10:14:16.020Z,12.76
2017-12-24T10:16:44.657Z,12.81
2017-12-24T10:19:14.115Z,12.62
2017-12-24T10:21:43.267Z,12.92
2017-12-24T10:24:11.993Z,12.90
2017-12-24T10:26:40.627Z,13.10
2017-12-24T10:29:10.146Z,12.98
2017-12-24T10:31:38.873Z,13.22
2017-12-24T10:34:07.559Z,13.50
2017-12-24T10:36:36.343Z,13.71
2017-12-24T10:39:05.028Z,13.50
2017-12-24T10:41:33.659Z,13.73
2017-12-24T10:44:03.277Z,14.13
2017-12-24T10:46:32.769Z,13.88
2017-12-24T10:49:02.188Z,13.85
2017-12-24T10:51:30.916Z,13.54
2017-12-24T10:53:59.548Z,13.31
2017-12-24T10:56:29.018Z,13.60
2017-12-24T10:58:57.859Z,13.74
2017-12-24T11:01:26.580Z,13.41
2017-12-24T11:03:55.311Z,13.59
2017-12-24T11:06:24.872Z,13.61
2017-12-24T11:08:53.608Z,13.53
2017-12-24T11:11:22.355Z,13.56
2017-12-24T11:13:51.140Z,13.75
2017-12-24T11:16:19.826Z,13.49
2017-12-24T11:18:48.405Z,13.53
2017-12-24T11:21:17.089Z,13.62
2017-12-24T11:23:45.732Z,13.34
2017-12-24T11:26:15.183Z,13.39
2017-12-24T11:28:43.968Z,13.54
2017-12-24T11:31:12.614Z,13.75
2017-12-24T11:33:41.165Z,13.76
2017-12-24T11:36:09.874Z,13.63
2017-12-24T11:38:39.326Z,13.61
2017-12-24T11:41:08.011Z,13.71
2017-12-24T11:43:36.696Z,13.73
2017-12-24T11:46:05.345Z,13.45
2017-12-24T11:48:34.058Z,13.75
2017-12-24T11:51:03.219Z,13.56
2017-12-24T11:53:31.947Z,13.64
2017-12-24T11:56:00.569Z,13.66
2017-12-24T11:58:30.108Z,13.58
2017-12-24T12:00:58.716Z,13.74
2017-12-24T12:03:27.260Z,13.81
2017-12-24T12:05:56.297Z,13.78
2017-12-24T12:08:24.983Z,13.71
2017-12-24T12:10:53.648Z,13.76
2017-12-24T12:13:22.715Z,14.05
2017-12-24T12:15:51.446Z,14.11
2017-12-24T12:18:20.077Z,13.73
2017-12-24T12:20:49.694Z,13.44
2017-12-24T12:23:18.425Z,12.99
2017-12-24T12:25:47.015Z,12.95
2017-12-24T12:28:16.110Z,12.75
2017-12-24T12:30:44.657Z,12.81
2017-12-24T12:33:13.269Z,12.60
2017-12-24T12:35:42.227Z,12.32
2017-12-24T12:38:11.670Z,12.30
2017-12-24T12:40:40.356Z,12.33
2017-12-24T12:43:09.141Z,12.35
2017-12-24T12:45:37.825Z,12.61
2017-12-24T12:48:06.512Z,12.82
2017-12-24T12:50:35.205Z,13.00
2017-12-24T12:53:03.897Z,13.10
2017-12-24T12:55:35.180Z,13.32
2017-12-24T12:58:04.910Z,13.35
2017-12-24T13:00:33.627Z,13.39
2017-12-24T13:03:02.272Z,13.44
2017-12-24T13:05:30.999Z,13.14
2017-12-24T13:07:59.633Z,13.18
2017-12-24T13:10:29.094Z,13.15
2017-12-24T13:12:57.978Z,13.13
2017-12-24T13:15:26.611Z,13.20
2017-12-24T13:17:56.025Z,13.12
2017-12-24T13:20:25.825Z,13.04
2017-12-24T13:22:55.234Z,12.99
2017-12-24T13:25:24.683Z,12.80
2017-12-24T13:27:53.779Z,12.67
2017-12-24T13:30:23.387Z,12.71
2017-12-24T13:32:51.973Z,12.51
2017-12-24T13:35:20.659Z,12.40
2017-12-24T13:37:49.345Z,12.27
2017-12-24T13:40:17.987Z,12.26
2017-12-24T13:42:47.028Z,12.16
2017-12-24T13:45:15.605Z,11.97
2017-12-24T13:47:44.156Z,11.64
2017-12-24T13:50:13.133Z,11.83
2017-12-24T13:52:42.590Z,11.67
2017-12-24T13:55:11.279Z,11.41
2017-12-24T13:57:40.012Z,11.38
2017-12-24T14:00:09.429Z,11.48
2017-12-24T14:02:38.097Z,11.52
2017-12-24T14:05:08.015Z,11.41
2017-12-24T14:07:36.747Z,11.25
2017-12-24T14:10:05.447Z,11.25
2017-12-24T14:12:34.325Z,11.29
2017-12-24T14:15:02.912Z,11.38
2017-12-24T14:17:31.598Z,11.22
2017-12-24T14:20:00.383Z,11.17
2017-12-24T14:22:29.070Z,11.17
2017-12-24T14:24:57.706Z,11.14
2017-12-24T14:27:27.299Z,11.07
2017-12-24T14:29:56.761Z,10.92
2017-12-24T14:32:25.409Z,10.88
2017-12-24T14:34:54.133Z,10.84
2017-12-24T14:37:22.818Z,10.81
2017-12-24T14:39:51.504Z,10.72
2017-12-24T14:42:20.096Z,10.64
2017-12-24T14:44:48.776Z,10.57
2017-12-24T14:47:17.416Z,10.53
2017-12-24T14:49:47.332Z,10.65
2017-12-24T14:52:16.776Z,10.67
2017-12-24T14:54:45.419Z,10.59
2017-12-24T14:57:14.152Z,10.62
2017-12-24T14:59:42.779Z,10.54
2017-12-24T15:02:12.243Z,10.59
2017-12-24T15:04:41.030Z,10.65
2017-12-24T15:07:16.209Z,10.44
2017-12-24T15:09:45.773Z,10.46
2017-12-24T15:12:14.447Z,10.35
2017-12-24T15:14:43.145Z,10.43
2017-12-24T15:17:11.878Z,10.29
2017-12-24T15:19:41.338Z,10.30
2017-12-24T15:22:09.960Z,10.14
2017-12-24T15:24:39.431Z,10.22
2017-12-24T15:27:07.993Z,10.32
2017-12-24T15:29:36.688Z,10.28
2017-12-24T15:32:08.354Z,10.16
2017-12-24T15:34:37.052Z,10.21
2017-12-24T15:37:05.826Z,10.13
2017-12-24T15:39:34.459Z,10.03
2017-12-24T15:42:03.912Z,10.12
2017-12-24T15:44:32.695Z,10.06
2017-12-24T15:47:01.282Z,9.98
2017-12-24T15:49:29.958Z,10.01
2017-12-24T15:51:58.863Z,9.88
2017-12-24T15:54:27.490Z,9.85
2017-12-24T15:56:56.947Z,9.81
2017-12-24T15:59:25.680Z,9.79
2017-12-24T16:01:55.142Z,9.85
2017-12-24T16:04:23.716Z,9.84
2017-12-24T16:06:52.406Z,9.70
2017-12-24T16:09:21.089Z,9.51
2017-12-24T16:11:49.775Z,9.44
2017-12-24T16:14:18.570Z,9.35
2017-12-24T16:16:47.251Z,9.33
2017-12-24T16:19:15.942Z,9.30
2017-12-24T16:21:44.567Z,9.40
2017-12-24T16:24:13.981Z,9.43
2017-12-24T16:26:43.471Z,9.42
2017-12-24T16:29:12.941Z,9.35
2017-12-24T16:31:41.780Z,9.33
2017-12-24T16:34:11.229Z,9.39
2017-12-24T16:36:40.170Z,9.40
2017-12-24T16:39:09.620Z,9.47
2017-12-24T16:41:38.306Z,9.41
2017-12-24T16:44:07.101Z,9.41
2017-12-24T16:46:35.634Z,9.47
2017-12-24T16:49:04.363Z,9.46
2017-12-24T16:51:33.147Z,9.41
2017-12-24T16:54:01.846Z,9.34
2017-12-24T16:56:30.483Z,9.35
2017-12-24T16:59:00.178Z,9.37
2017-12-24T17:01:29.597Z,9.33
2017-12-24T17:03:58.433Z,9.49
2017-12-24T17:06:27.282Z,9.59
2017-12-24T17:08:56.001Z,9.72
2017-12-24T17:11:24.687Z,9.82
2017-12-24T17:13:53.288Z,9.80
2017-12-24T17:16:21.978Z,9.72
2017-12-24T17:18:50.694Z,9.63
2017-12-24T17:21:20.559Z,9.55
2017-12-24T17:23:49.190Z,9.48
2017-12-24T17:26:17.932Z,9.29
2017-12-24T17:28:46.925Z,9.31
2017-12-24T17:31:15.616Z,9.48
2017-12-24T17:33:44.297Z,9.40
2017-12-24T17:36:13.181Z,9.56
2017-12-24T17:38:41.876Z,9.55
2017-12-24T17:41:10.453Z,9.44
2017-12-24T17:43:39.397Z,9.41
2017-12-24T17:46:08.133Z,9.45
2017-12-24T17:48:36.783Z,9.38
2017-12-24T17:51:05.507Z,9.35
2017-12-24T17:53:34.168Z,9.29
2017-12-24T17:56:02.835Z,9.37
2017-12-24T17:58:31.869Z,9.41
2017-12-24T18:01:00.553Z,9.30
2017-12-24T18:03:29.189Z,9.43
2017-12-24T18:05:58.641Z,9.51
2017-12-24T18:08:27.335Z,9.61
2017-12-24T18:10:55.912Z,9.49
2017-12-24T18:13:24.760Z,9.51
2017-12-24T18:15:54.203Z,9.54
2017-12-24T18:18:22.899Z,9.44
2017-12-24T18:20:51.738Z,9.39
2017-12-24T18:23:21.185Z,9.39
2017-12-24T18:25:49.823Z,9.27
2017-12-24T18:28:18.818Z,9.28
2017-12-24T18:30:47.548Z,9.25
2017-12-24T18:33:16.134Z,9.15
2017-12-24T18:35:46.019Z,9.09
2017-12-24T18:38:14.566Z,9.05
2017-12-24T18:40:43.323Z,9.02
2017-12-24T18:43:12.048Z,9.09
2017-12-24T18:45:41.510Z,9.14
2017-12-24T18:48:10.158Z,9.11
2017-12-24T18:50:39.150Z,9.07
2017-12-24T18:53:07.873Z,9.06
2017-12-24T18:55:36.511Z,8.93
2017-12-24T18:58:06.452Z,9.01
2017-12-24T19:00:35.158Z,9.05
2017-12-24T19:03:03.790Z,9.01
2017-12-24T19:05:33.332Z,9.03
2017-12-24T19:08:02.040Z,9.28
2017-12-24T19:10:30.732Z,9.28
2017-12-24T19:12:59.660Z,9.17
2017-12-24T19:15:29.116Z,9.24
2017-12-24T19:17:57.705Z,9.18
2017-12-24T19:20:26.438Z,9.15
2017-12-24T19:22:55.900Z,9.15
2017-12-24T19:25:27.142Z,9.05
2017-12-24T19:27:55.731Z,9.02
2017-12-24T19:30:24.303Z,8.86
2017-12-24T19:32:53.100Z,8.84
2017-12-24T19:35:21.741Z,9.02
2017-12-24T19:37:50.470Z,8.97
2017-12-24T19:40:19.205Z,8.99
2017-12-24T19:42:48.657Z,8.79
2017-12-24T19:45:17.339Z,8.68
2017-12-24T19:47:46.031Z,8.32
2017-12-24T19:50:14.676Z,8.01
2017-12-24T19:52:43.397Z,7.84
2017-12-24T19:55:13.059Z,7.59
2017-12-24T19:57:42.415Z,8.01
2017-12-24T20:00:11.095Z,7.91
2017-12-24T20:02:39.944Z,7.96
2017-12-24T20:05:08.672Z,7.74
2017-12-24T20:07:37.301Z,7.55
2017-12-24T20:10:06.963Z,7.35
2017-12-24T20:12:35.649Z,7.08
2017-12-24T20:15:04.333Z,6.84
2017-12-24T20:17:33.473Z,6.78
2017-12-24T20:20:02.837Z,7.42
2017-12-24T20:22:31.423Z,7.42
2017-12-24T20:25:00.109Z,6.51
2017-12-24T20:27:29.662Z,6.11
2017-12-24T20:29:58.362Z,6.11
2017-12-24T20:32:27.079Z,5.96
2017-12-24T20:34:56.540Z,5.90
2017-12-24T20:37:25.162Z,5.91
2017-12-24T20:39:54.682Z,6.00
2017-12-24T20:42:23.410Z,5.87
2017-12-24T20:44:52.046Z,5.76
2017-12-24T20:47:21.088Z,5.55
2017-12-24T20:49:49.677Z,5.63
2017-12-24T20:52:18.224Z,5.79
2017-12-24T20:54:47.146Z,6.20
2017-12-24T20:57:15.782Z,5.85
2017-12-24T20:59:45.242Z,4.39
2017-12-24T21:02:13.916Z,4.41
2017-12-24T21:04:42.607Z,4.51
2017-12-24T21:07:11.253Z,4.60
2017-12-24T21:09:40.022Z,4.54
2017-12-24T21:12:09.439Z,4.56
2017-12-24T21:14:38.169Z,4.41
2017-12-24T21:17:07.064Z,4.43
2017-12-24T21:19:35.645Z,4.42
2017-12-24T21:22:04.196Z,4.48
2017-12-24T21:24:33.177Z,5.33
2017-12-24T21:27:01.905Z,5.20
2017-12-24T21:29:30.491Z,5.18
2017-12-24T21:31:59.486Z,5.30
2017-12-24T21:34:28.124Z,5.65
2017-12-24T21:36:57.570Z,6.12
2017-12-24T21:39:26.305Z,6.34
2017-12-24T21:41:55.765Z,6.45
2017-12-24T21:44:24.451Z,6.53
2017-12-24T21:46:53.234Z,6.65
2017-12-24T21:49:21.920Z,6.86
2017-12-24T21:51:50.607Z,6.81
2017-12-24T21:54:19.614Z,6.65
2017-12-24T21:56:48.330Z,6.51
2017-12-24T21:59:17.795Z,6.40
2017-12-24T22:01:46.579Z,6.36
2017-12-24T22:04:15.265Z,6.27
2017-12-24T22:06:44.872Z,5.97
2017-12-24T22:09:14.022Z,5.62
2017-12-24T22:11:43.376Z,5.34
2017-12-24T22:14:11.961Z,4.99
2017-12-24T22:16:40.801Z,4.80
2017-12-24T22:19:09.838Z,4.75
2017-12-24T22:21:38.526Z,4.80
2017-12-24T22:24:07.627Z,4.78
2017-12-24T22:26:36.311Z,4.50
2017-12-24T22:29:04.999Z,4.37
2017-12-24T22:31:33.682Z,4.23
2017-12-24T22:34:02.369Z,4.18
2017-12-24T22:36:31.055Z,3.92
2017-12-24T22:38:59.786Z,4.04
2017-12-24T22:41:29.095Z,3.99
2017-12-24T22:43:58.539Z,3.86
2017-12-24T22:46:27.714Z,3.97
2017-12-24T22:48:56.382Z,3.71
2017-12-24T22:51:25.825Z,3.48
2017-12-24T22:53:55.027Z,3.49
2017-12-24T22:56:23.661Z,3.75
2017-12-24T22:58:53.079Z,3.22
2017-12-24T23:01:21.798Z,3.34
2017-12-24T23:03:50.483Z,3.31
2017-12-24T23:06:19.131Z,3.21
2017-12-24T23:08:47.855Z,3.33
2017-12-24T23:11:16.540Z,3.69
2017-12-24T23:13:45.227Z,3.43
2017-12-24T23:16:14.022Z,3.48
2017-12-24T23:18:42.708Z,3.50
2017-12-24T23:21:11.437Z,3.22
2017-12-24T23:23:41.155Z,2.80
2017-12-24T23:26:09.848Z,2.45
2017-12-24T23:28:38.571Z,2.29
2017-12-24T23:31:07.255Z,2.33
2017-12-24T23:33:35.942Z,2.69
2017-12-24T23:36:04.529Z,2.65
2017-12-24T23:38:33.314Z,2.73
2017-12-24T23:41:02.005Z,2.85
2017-12-24T23:43:30.686Z,2.77
2017-12-24T23:45:59.679Z,3.09
2017-12-24T23:48:28.283Z,2.99
2017-12-24T23:50:56.951Z,2.74
2017-12-24T23:53:25.947Z,2.87
2017-12-24T23:55:55.360Z,2.91
2017-12-24T23:58:24.031Z,2.85
